Time;durP1;ratioP1;P1;durP2;ratioP2;P2;SDS_P1;SDS_P2;PMS_P1;PMS_P2;Temp;Humidity;BMP_temperature;BMP_pressure;BME280_temperature;BME280_humidity;BME280_pressure;Samples;Min_cycle;Max_cycle;Signal;HPM_P1;HPM_P2
2021/12/06 00:01:51;;;;;;;4.25;2.25;;;20.30;46.50;;;;;;4843009;29;20083;-68
2021/12/06 00:04:31;;;;;;;4.53;2.17;;;20.20;46.50;;;;;;4830091;29;20334;-63
2021/12/06 00:07:00;;;;;;;5.72;2.35;;;20.20;46.60;;;;;;4844777;29;20122;-60
2021/12/06 00:09:28;;;;;;;5.25;2.50;;;20.20;46.60;;;;;;4849036;29;20417;-59
2021/12/06 00:11:57;;;;;;;6.30;2.10;;;20.20;46.60;;;;;;4843490;29;20022;-60
2021/12/06 00:14:29;;;;;;;4.18;2.33;;;20.20;46.60;;;;;;4848389;29;20037;-59
2021/12/06 00:16:57;;;;;;;6.05;2.20;;;20.20;46.60;;;;;;4843499;29;20064;-60
2021/12/06 00:19:23;;;;;;;4.88;2.30;;;20.20;46.60;;;;;;4844873;29;20061;-60
2021/12/06 00:21:49;;;;;;;4.03;2.10;;;20.10;46.60;;;;;;4845119;29;20543;-60
2021/12/06 00:24:15;;;;;;;4.38;2.08;;;20.10;46.80;;;;;;4846716;29;20402;-60
2021/12/06 00:26:41;;;;;;;6.50;2.03;;;20.10;46.60;;;;;;4854658;29;20026;-59
2021/12/06 00:29:06;;;;;;;5.35;2.20;;;20.10;46.60;;;;;;4845415;29;20045;-59
2021/12/06 00:31:34;;;;;;;4.93;1.88;;;20.10;46.60;;;;;;4844673;29;20527;-60
2021/12/06 00:34:04;;;;;;;4.38;2.30;;;20.00;46.60;;;;;;4845078;29;20117;-64
2021/12/06 00:36:32;;;;;;;4.93;2.35;;;20.00;46.50;;;;;;4850116;29;20074;-63
2021/12/06 00:38:59;;;;;;;4.00;2.13;;;20.00;46.50;;;;;;4843897;29;20038;-63
2021/12/06 00:41:26;;;;;;;3.47;1.88;;;20.00;46.60;;;;;;4850448;29;20033;-63
2021/12/06 00:43:52;;;;;;;7.03;2.25;;;19.90;46.50;;;;;;4845338;29;20379;-63
2021/12/06 00:46:18;;;;;;;4.15;1.80;;;20.00;46.60;;;;;;4843399;29;20390;-63
2021/12/06 00:48:44;;;;;;;4.93;2.00;;;19.90;46.50;;;;;;4845430;29;21761;-63
2021/12/06 00:51:11;;;;;;;5.13;2.10;;;19.90;46.50;;;;;;4842601;29;20061;-63
2021/12/06 00:53:37;;;;;;;2.58;1.67;;;19.90;46.50;;;;;;4841994;29;20075;-63
2021/12/06 00:56:03;;;;;;;7.57;2.45;;;19.90;46.50;;;;;;4844055;29;20063;-63
2021/12/06 00:58:29;;;;;;;4.53;2.00;;;19.90;46.40;;;;;;4845154;29;20560;-63
2021/12/06 01:00:55;;;;;;;4.55;2.35;;;19.80;46.40;;;;;;4842496;29;20121;-63
2021/12/06 01:03:28;;;;;;;2.97;1.73;;;19.80;46.30;;;;;;4844238;29;20063;-62
2021/12/06 01:05:54;;;;;;;3.70;1.70;;;19.80;46.30;;;;;;4853036;29;20478;-60
2021/12/06 01:08:21;;;;;;;3.25;1.90;;;19.80;46.30;;;;;;4845433;29;20041;-60
2021/12/06 01:10:47;;;;;;;3.92;1.70;;;19.80;46.30;;;;;;4842501;29;20034;-60
2021/12/06 01:13:14;;;;;;;3.47;1.75;;;19.80;46.30;;;;;;4838977;29;20094;-60
2021/12/06 01:15:40;;;;;;;2.38;1.80;;;19.70;46.20;;;;;;4852786;29;20044;-60
2021/12/06 01:18:08;;;;;;;2.92;1.90;;;19.70;47.20;;;;;;4845408;29;20053;-60
2021/12/06 01:20:40;;;;;;;3.50;1.90;;;19.70;46.20;;;;;;4842676;29;20042;-62
2021/12/06 01:23:11;;;;;;;2.92;1.88;;;19.70;46.20;;;;;;4843997;29;20029;-63
2021/12/06 01:39:17;;;;;;;3.42;1.77;;;19.50;46.20;;;;;;4848312;29;20382;-63
2021/12/06 01:41:48;;;;;;;3.00;2.03;;;19.50;46.20;;;;;;4833700;29;20022;-63
2021/12/06 01:44:48;;;;;;;3.85;2.05;;;19.50;46.20;;;;;;4847376;29;20037;-63
2021/12/06 01:47:15;;;;;;;2.45;1.85;;;19.50;46.10;;;;;;4848992;29;20079;-60
2021/12/06 01:49:46;;;;;;;2.85;2.13;;;19.50;46.20;;;;;;4846959;29;20030;-60
2021/12/06 01:52:25;;;;;;;4.70;2.05;;;19.40;46.10;;;;;;4846885;29;20534;-60
2021/12/06 01:54:54;;;;;;;3.10;1.92;;;19.40;46.10;;;;;;4846453;29;20029;-61
2021/12/06 01:57:21;;;;;;;3.03;1.80;;;19.40;46.10;;;;;;4847412;29;20045;-60
2021/12/06 01:59:48;;;;;;;3.45;2.00;;;19.40;46.10;;;;;;4849393;29;20065;-60
2021/12/06 02:02:15;;;;;;;3.45;1.95;;;19.40;46.10;;;;;;4846441;29;20122;-60
2021/12/06 02:04:42;;;;;;;2.22;1.73;;;19.40;46.10;;;;;;4849082;29;20026;-60
2021/12/06 02:07:13;;;;;;;2.75;1.90;;;19.40;46.10;;;;;;4856220;29;20030;-62
2021/12/06 02:09:39;;;;;;;2.80;1.77;;;19.40;46.10;;;;;;4847307;29;20061;-62
2021/12/06 02:12:05;;;;;;;2.50;1.70;;;19.40;46.10;;;;;;4845881;29;20061;-63
2021/12/06 02:14:45;;;;;;;3.72;2.25;;;19.30;46.00;;;;;;4851128;29;20041;-63
2021/12/06 02:19:44;;;;;;;2.47;2.17;;;19.30;46.00;;;;;;4849986;29;20049;-60
2021/12/06 02:22:13;;;;;;;3.22;1.70;;;19.30;46.00;;;;;;4847222;29;20030;-60
2021/12/06 02:24:40;;;;;;;2.45;1.95;;;19.30;46.00;;;;;;4844652;29;20029;-60
2021/12/06 02:27:08;;;;;;;2.70;1.90;;;19.30;46.00;;;;;;4847878;29;20367;-60
2021/12/06 02:29:35;;;;;;;3.20;1.90;;;19.30;46.00;;;;;;4852340;29;20033;-60
2021/12/06 02:32:05;;;;;;;2.92;1.90;;;19.20;45.90;;;;;;4853560;29;20034;-60
2021/12/06 02:34:31;;;;;;;3.60;2.05;;;19.20;45.90;;;;;;4847940;29;20367;-60
2021/12/06 02:36:57;;;;;;;2.63;1.88;;;19.20;45.90;;;;;;4847294;29;20038;-60
2021/12/06 02:39:25;;;;;;;2.47;1.80;;;19.20;45.90;;;;;;4846206;29;20136;-63
2021/12/06 02:41:52;;;;;;;3.25;2.00;;;19.20;46.00;;;;;;4847759;29;20033;-61
2021/12/06 02:44:19;;;;;;;2.50;1.90;;;19.20;46.00;;;;;;4845053;29;20057;-60
2021/12/06 02:46:45;;;;;;;3.38;2.20;;;19.20;46.00;;;;;;4857720;29;20026;-62
2021/12/06 02:49:10;;;;;;;2.05;1.73;;;19.20;45.90;;;;;;4846372;29;20077;-63
2021/12/06 02:51:36;;;;;;;2.85;1.90;;;19.10;45.90;;;;;;4845639;29;20034;-63
2021/12/06 02:54:02;;;;;;;2.33;1.90;;;19.10;45.90;;;;;;4845530;29;20022;-63
2021/12/06 02:59:02;;;;;;;2.30;2.00;;;19.10;45.90;;;;;;4845428;29;20542;-62
2021/12/06 03:01:33;;;;;;;3.67;1.97;;;19.10;45.90;;;;;;4845397;29;20130;-63
2021/12/06 03:04:00;;;;;;;2.38;1.88;;;19.10;45.90;;;;;;4845294;29;20778;-63
2021/12/06 03:06:29;;;;;;;2.63;2.00;;;19.10;45.90;;;;;;4857941;29;20471;-62
2021/12/06 03:09:06;;;;;;;2.13;1.70;;;19.10;45.90;;;;;;4845682;29;20117;-63
2021/12/06 03:11:37;;;;;;;2.85;2.20;;;19.10;45.90;;;;;;4844756;29;20511;-63
2021/12/06 03:14:04;;;;;;;2.53;1.80;;;19.00;45.90;;;;;;4846930;29;20045;-62
2021/12/06 03:16:30;;;;;;;3.47;1.98;;;19.00;46.00;;;;;;4847589;29;20054;-63
2021/12/06 03:18:57;;;;;;;3.25;1.83;;;19.00;46.00;;;;;;4848095;29;20053;-62
2021/12/06 03:21:24;;;;;;;2.85;1.80;;;19.00;45.90;;;;;;4847762;29;20623;-63
2021/12/06 03:23:51;;;;;;;2.80;2.00;;;19.00;45.90;;;;;;4845118;29;20034;-63
2021/12/06 03:26:17;;;;;;;2.30;1.80;;;18.90;45.90;;;;;;4846924;29;20057;-63
2021/12/06 03:28:44;;;;;;;2.85;2.00;;;18.90;45.90;;;;;;4829044;29;20356;-62
2021/12/06 03:31:11;;;;;;;3.10;1.92;;;18.90;45.90;;;;;;4852186;29;20034;-63
2021/12/06 03:33:38;;;;;;;2.45;1.70;;;18.90;45.90;;;;;;4846071;29;20042;-62
2021/12/06 03:36:06;;;;;;;2.80;1.88;;;18.90;45.90;;;;;;4846361;29;20069;-63
2021/12/06 03:38:32;;;;;;;3.08;1.90;;;18.90;45.90;;;;;;4845552;29;20478;-63
2021/12/06 03:40:58;;;;;;;3.13;1.90;;;18.90;45.90;;;;;;4845458;29;20030;-63
2021/12/06 03:43:24;;;;;;;3.03;1.92;;;18.90;45.90;;;;;;4854825;29;20044;-63
2021/12/06 03:45:50;;;;;;;2.75;2.05;;;18.80;45.90;;;;;;4846942;29;20026;-63
2021/12/06 03:48:16;;;;;;;2.30;1.90;;;18.80;45.90;;;;;;4844801;29;20026;-63
2021/12/06 03:50:42;;;;;;;2.30;1.83;;;18.80;45.90;;;;;;4849532;29;20021;-62
2021/12/06 03:53:08;;;;;;;2.85;1.85;;;18.80;45.90;;;;;;4857018;29;20037;-60
2021/12/06 03:55:34;;;;;;;3.20;2.00;;;18.80;45.90;;;;;;4846044;29;20042;-61
2021/12/06 03:57:59;;;;;;;1.90;1.60;;;18.80;45.90;;;;;;4844815;29;20034;-60
2021/12/06 04:00:25;;;;;;;3.75;1.92;;;18.80;45.90;;;;;;4845874;29;20026;-62
2021/12/06 04:02:51;;;;;;;2.72;1.80;;;18.70;45.90;;;;;;4828309;29;20455;-63
2021/12/06 04:05:17;;;;;;;1.70;1.58;;;18.70;45.90;;;;;;4847450;29;20072;-62
2021/12/06 04:07:43;;;;;;;4.05;2.03;;;18.70;45.90;;;;;;4844915;29;20144;-63
2021/12/06 04:10:10;;;;;;;1.92;1.67;;;18.70;45.90;;;;;;4846801;29;20352;-62
2021/12/06 04:12:36;;;;;;;2.38;1.90;;;18.70;45.90;;;;;;4844284;29;20490;-63
2021/12/06 04:15:04;;;;;;;3.00;2.15;;;18.70;45.90;;;;;;4848908;29;20423;-62
2021/12/06 04:17:30;;;;;;;2.20;1.95;;;18.70;46.00;;;;;;4837208;29;20133;-63
2021/12/06 04:19:56;;;;;;;1.92;1.80;;;18.70;45.90;;;;;;4847681;29;20162;-60
2021/12/06 04:22:21;;;;;;;3.00;2.00;;;18.70;45.90;;;;;;4842913;29;20108;-60
2021/12/06 04:24:47;;;;;;;2.35;1.80;;;18.70;46.90;;;;;;4846665;29;20469;-60
2021/12/06 04:27:14;;;;;;;2.67;1.80;;;18.60;45.90;;;;;;4847431;29;20048;-60
2021/12/06 04:29:47;;;;;;;3.28;2.13;;;18.70;45.90;;;;;;4846068;29;20054;-60
2021/12/06 04:32:14;;;;;;;2.47;1.92;;;18.60;45.90;;;;;;4845204;29;20505;-60
2021/12/06 04:34:41;;;;;;;3.63;2.15;;;18.60;45.90;;;;;;4845529;29;20125;-60
2021/12/06 04:37:07;;;;;;;3.25;2.10;;;18.60;45.90;;;;;;4844353;29;20034;-60
2021/12/06 04:39:34;;;;;;;2.70;1.92;;;18.60;46.00;;;;;;4844193;29;20436;-60
2021/12/06 04:42:00;;;;;;;2.45;2.00;;;18.60;45.90;;;;;;4853301;29;20060;-60
2021/12/06 04:44:26;;;;;;;2.50;2.00;;;18.50;45.90;;;;;;4854877;29;20102;-60
2021/12/06 04:46:52;;;;;;;2.88;1.90;;;18.60;46.00;;;;;;4854992;29;20486;-60
2021/12/06 04:49:18;;;;;;;2.63;2.10;;;18.50;45.90;;;;;;4844196;29;20402;-62
2021/12/06 04:51:48;;;;;;;2.85;2.00;;;18.60;46.00;;;;;;4826432;29;20038;-62
2021/12/06 04:54:16;;;;;;;2.95;1.95;;;18.50;45.90;;;;;;4843998;29;20030;-62
2021/12/06 04:56:56;;;;;;;2.85;2.20;;;18.50;45.90;;;;;;4846312;29;20034;-60
2021/12/06 04:59:25;;;;;;;2.60;1.98;;;18.50;45.90;;;;;;4844506;29;20479;-60
2021/12/06 05:01:55;;;;;;;3.05;2.20;;;18.50;45.90;;;;;;4846961;29;20064;-60
2021/12/06 05:04:27;;;;;;;2.70;2.15;;;18.50;46.00;;;;;;4848152;29;20030;-60
2021/12/06 05:07:00;;;;;;;2.65;2.13;;;18.50;46.00;;;;;;4848561;29;20022;-60
2021/12/06 05:09:31;;;;;;;2.35;1.92;;;18.40;46.00;;;;;;4849001;29;20026;-60
2021/12/06 05:11:57;;;;;;;4.00;2.08;;;18.40;46.00;;;;;;4833017;29;20057;-60
2021/12/06 05:14:24;;;;;;;3.05;2.30;;;18.40;46.00;;;;;;4835658;29;20029;-60
2021/12/06 05:16:51;;;;;;;3.15;2.05;;;18.40;45.90;;;;;;4848461;29;20502;-60
2021/12/06 05:19:17;;;;;;;2.33;1.77;;;18.40;46.00;;;;;;4849827;29;20084;-60
2021/12/06 05:21:42;;;;;;;3.17;2.15;;;18.40;46.00;;;;;;4848092;29;20486;-60
2021/12/06 05:24:08;;;;;;;2.40;1.98;;;18.40;46.00;;;;;;4848430;29;20090;-62
2021/12/06 05:26:35;;;;;;;2.97;1.85;;;18.40;46.00;;;;;;4848704;29;20036;-63
2021/12/06 05:29:03;;;;;;;2.10;1.80;;;18.40;46.00;;;;;;4847877;29;20033;-63
2021/12/06 05:31:30;;;;;;;2.42;2.00;;;18.40;46.00;;;;;;4852646;29;20033;-63
2021/12/06 05:34:02;;;;;;;2.78;2.00;;;18.30;46.00;;;;;;4852734;29;20058;-62
2021/12/06 05:36:27;;;;;;;2.17;1.85;;;18.30;45.90;;;;;;4847910;29;20038;-63
2021/12/06 05:38:54;;;;;;;2.50;2.00;;;18.30;46.00;;;;;;4848518;29;20082;-63
2021/12/06 05:41:21;;;;;;;2.67;1.92;;;18.30;46.00;;;;;;4851745;29;20033;-63
2021/12/06 05:43:47;;;;;;;2.47;2.00;;;18.30;46.00;;;;;;4848062;29;20029;-62
2021/12/06 05:46:13;;;;;;;3.22;2.10;;;18.30;46.00;;;;;;4847284;29;20101;-62
2021/12/06 05:48:39;;;;;;;2.25;1.88;;;18.20;46.00;;;;;;4831579;29;20030;-62
2021/12/06 05:51:04;;;;;;;2.95;2.20;;;18.20;46.00;;;;;;4845655;29;20052;-62
2021/12/06 05:53:31;;;;;;;2.50;1.98;;;18.20;46.00;;;;;;4847411;29;20033;-62
2021/12/06 05:55:56;;;;;;;2.47;2.00;;;18.20;46.00;;;;;;4847372;29;20061;-63
2021/12/06 05:58:26;;;;;;;2.63;2.00;;;18.20;46.00;;;;;;4849052;29;20068;-63
2021/12/06 06:00:53;;;;;;;3.15;2.10;;;18.20;46.00;;;;;;4844717;29;20037;-62
2021/12/06 06:03:19;;;;;;;2.53;1.88;;;18.10;46.00;;;;;;4849744;29;20431;-62
2021/12/06 06:05:46;;;;;;;2.22;2.00;;;18.10;46.00;;;;;;4855157;29;20034;-63
2021/12/06 06:08:11;;;;;;;2.53;2.00;;;18.20;46.10;;;;;;4850873;29;20092;-63
2021/12/06 06:10:38;;;;;;;2.50;1.98;;;18.10;46.10;;;;;;4846019;29;20584;-63
2021/12/06 06:13:05;;;;;;;2.90;2.17;;;18.10;46.10;;;;;;4856849;29;20048;-63
2021/12/06 06:15:31;;;;;;;2.10;1.90;;;18.10;46.10;;;;;;4848133;29;20049;-63
2021/12/06 06:17:57;;;;;;;2.33;1.80;;;18.10;46.10;;;;;;4854008;29;20089;-63
2021/12/06 06:20:34;;;;;;;2.70;2.10;;;18.10;46.10;;;;;;4846247;29;20022;-62
2021/12/06 06:22:59;;;;;;;2.92;2.13;;;18.00;46.10;;;;;;4847114;29;20030;-62
2021/12/06 06:25:25;;;;;;;2.28;1.80;;;18.00;46.10;;;;;;4829684;29;20166;-62
2021/12/06 06:27:51;;;;;;;2.50;2.10;;;18.00;46.10;;;;;;4847418;29;20037;-62
2021/12/06 06:30:17;;;;;;;2.88;2.10;;;18.00;46.20;;;;;;4846106;29;20546;-62
2021/12/06 06:32:44;;;;;;;2.33;2.00;;;18.00;46.10;;;;;;4847229;29;20393;-60
2021/12/06 06:35:11;;;;;;;2.08;1.88;;;18.00;46.20;;;;;;4847145;29;20148;-60
2021/12/06 06:37:37;;;;;;;2.95;2.10;;;17.90;46.20;;;;;;4847117;29;20518;-60
2021/12/06 06:40:03;;;;;;;2.92;2.08;;;17.90;46.10;;;;;;4845633;29;20555;-60
2021/12/06 06:42:29;;;;;;;2.58;2.15;;;17.90;46.20;;;;;;4847214;29;20034;-60
2021/12/06 06:44:55;;;;;;;2.60;2.00;;;17.90;46.20;;;;;;4845531;29;20038;-60
2021/12/06 06:47:21;;;;;;;2.70;2.20;;;17.90;46.20;;;;;;4848502;29;20029;-59
2021/12/06 06:49:47;;;;;;;2.47;2.10;;;17.90;46.20;;;;;;4846442;29;20038;-62
2021/12/06 06:52:13;;;;;;;2.45;2.10;;;17.90;46.20;;;;;;4853106;29;20513;-62
2021/12/06 06:54:39;;;;;;;2.25;2.00;;;17.90;47.20;;;;;;4852018;29;20065;-60
2021/12/06 06:57:05;;;;;;;2.45;1.70;;;17.80;46.20;;;;;;4849023;29;20522;-60
2021/12/06 06:59:30;;;;;;;2.60;2.00;;;17.80;46.20;;;;;;4846186;29;20041;-60
2021/12/06 07:01:56;;;;;;;2.22;1.90;;;17.80;46.20;;;;;;4847359;29;20117;-60
2021/12/06 07:04:22;;;;;;;2.60;1.90;;;17.80;46.20;;;;;;4845787;29;20030;-62
2021/12/06 07:06:47;;;;;;;2.75;2.10;;;17.80;46.20;;;;;;4858976;29;20038;-60
2021/12/06 07:09:13;;;;;;;2.63;2.00;;;17.80;46.20;;;;;;4849306;29;20030;-62
2021/12/06 07:11:43;;;;;;;2.35;1.90;;;17.80;46.20;;;;;;4851703;29;20053;-62
2021/12/06 07:14:09;;;;;;;3.10;2.45;;;17.80;46.20;;;;;;4855292;29;20419;-62
2021/12/06 07:16:35;;;;;;;2.72;2.35;;;17.70;46.20;;;;;;4848608;29;20054;-62
2021/12/06 07:19:01;;;;;;;2.63;2.00;;;17.70;46.20;;;;;;4846004;29;20042;-62
2021/12/06 07:21:26;;;;;;;2.55;1.95;;;17.70;46.20;;;;;;4848293;29;20484;-62
2021/12/06 07:23:52;;;;;;;2.60;1.90;;;17.70;46.20;;;;;;4850534;29;20375;-62
2021/12/06 07:26:19;;;;;;;2.55;2.20;;;17.70;46.20;;;;;;4845540;29;20061;-62
2021/12/06 07:28:46;;;;;;;3.13;2.00;;;17.70;46.20;;;;;;4844386;29;20037;-62
2021/12/06 07:31:14;;;;;;;2.90;2.20;;;17.70;46.20;;;;;;4845765;29;20033;-60
2021/12/06 07:33:42;;;;;;;3.55;2.40;;;17.70;46.20;;;;;;4846696;29;20049;-60
2021/12/06 07:36:08;;;;;;;3.70;1.92;;;17.70;46.30;;;;;;4850699;29;20061;-60
2021/12/06 07:38:35;;;;;;;3.03;2.25;;;17.70;46.20;;;;;;4846347;29;20113;-62
2021/12/06 07:41:01;;;;;;;2.97;2.20;;;17.70;46.20;;;;;;4845443;29;20379;-62
2021/12/06 07:43:27;;;;;;;3.10;1.80;;;17.60;46.20;;;;;;4845702;29;20394;-62
2021/12/06 07:45:53;;;;;;;4.05;2.28;;;17.60;46.20;;;;;;4845692;29;20030;-63
2021/12/06 07:48:19;;;;;;;2.72;2.20;;;17.70;46.20;;;;;;4845725;29;20045;-60
2021/12/06 07:50:44;;;;;;;2.78;2.38;;;17.60;46.20;;;;;;4843983;29;20030;-60
2021/12/06 07:53:11;;;;;;;2.50;2.10;;;17.60;46.20;;;;;;4844568;29;20034;-60
2021/12/06 07:55:37;;;;;;;2.70;2.20;;;17.60;46.20;;;;;;4844810;29;20033;-60
2021/12/06 07:58:04;;;;;;;2.42;2.22;;;17.60;47.10;;;;;;4844647;29;20034;-60
2021/12/06 08:00:32;;;;;;;2.85;2.00;;;17.60;46.20;;;;;;4844379;29;20118;-60
2021/12/06 08:02:58;;;;;;;2.92;2.17;;;17.60;46.10;;;;;;4833959;29;20034;-60
2021/12/06 08:05:31;;;;;;;4.93;4.18;;;17.60;46.20;;;;;;4850447;29;20034;-61
2021/12/06 08:08:24;;;;;;;5.60;3.78;;;17.60;45.50;;;;;;4849187;29;20030;-61
2021/12/06 08:10:56;;;;;;;8.55;5.13;;;17.20;45.20;;;;;;4843779;29;20108;-60
2021/12/06 08:13:25;;;;;;;6.18;4.53;;;16.90;45.50;;;;;;4844506;29;20025;-60
2021/12/06 08:15:52;;;;;;;5.70;4.22;;;16.70;45.50;;;;;;4846572;29;20079;-60
2021/12/06 08:18:18;;;;;;;7.60;5.95;;;16.50;46.00;;;;;;4850258;29;20040;-60
2021/12/06 08:20:44;;;;;;;6.22;4.93;;;16.30;45.70;;;;;;4852240;29;20113;-61
2021/12/06 08:23:10;;;;;;;7.10;5.28;;;16.10;46.40;;;;;;4851855;29;20102;-60
2021/12/06 08:25:37;;;;;;;7.70;5.90;;;15.90;46.40;;;;;;4850161;29;20375;-59
2021/12/06 08:28:04;;;;;;;8.73;5.13;;;15.70;46.80;;;;;;4845268;29;20045;-60
2021/12/06 08:30:29;;;;;;;7.43;4.78;;;15.70;47.30;;;;;;4844092;29;20426;-60
2021/12/06 08:32:58;;;;;;;7.50;5.22;;;15.70;47.60;;;;;;4844007;29;20061;-60
2021/12/06 08:35:26;;;;;;;7.18;4.82;;;15.80;47.30;;;;;;4843918;29;20025;-60
2021/12/06 08:37:52;;;;;;;5.72;4.30;;;15.80;47.20;;;;;;4843243;29;20360;-60
2021/12/06 08:40:18;;;;;;;5.53;3.70;;;15.80;47.30;;;;;;4851984;29;20034;-59
2021/12/06 08:42:44;;;;;;;4.95;4.03;;;15.90;47.60;;;;;;4844021;29;20090;-60
2021/12/06 08:45:12;;;;;;;7.07;5.03;;;15.90;47.80;;;;;;4844477;29;20412;-60
2021/12/06 08:47:39;;;;;;;5.10;3.70;;;15.90;47.30;;;;;;4843583;29;20026;-59
2021/12/06 08:50:09;;;;;;;5.28;4.22;;;15.90;47.80;;;;;;4844627;29;20535;-59
2021/12/06 08:52:36;;;;;;;4.78;3.53;;;15.90;47.40;;;;;;4861480;29;20029;-60
2021/12/06 08:55:04;;;;;;;6.43;3.20;;;16.00;47.70;;;;;;4849902;29;20093;-62
2021/12/06 08:57:29;;;;;;;5.65;3.70;;;16.10;47.90;;;;;;4843911;29;20029;-60
2021/12/06 08:59:55;;;;;;;6.55;3.05;;;16.20;47.70;;;;;;4844281;29;20398;-60
2021/12/06 09:02:21;;;;;;;4.63;3.38;;;16.30;47.80;;;;;;4843511;29;20038;-61
2021/12/06 09:04:48;;;;;;;6.07;4.05;;;16.30;47.80;;;;;;4845996;29;20026;-60
2021/12/06 09:07:14;;;;;;;5.05;3.17;;;16.30;47.60;;;;;;4853986;29;20109;-59
2021/12/06 09:09:47;;;;;;;3.88;2.90;;;16.40;47.80;;;;;;4846074;29;20033;-60
2021/12/06 09:12:25;;;;;;;4.68;2.78;;;16.50;47.70;;;;;;4846897;29;20501;-59
2021/12/06 09:14:53;;;;;;;3.42;2.70;;;16.60;48.70;;;;;;4848104;29;20490;-62
2021/12/06 09:17:21;;;;;;;4.55;2.58;;;16.80;48.80;;;;;;4843120;29;20118;-61
2021/12/06 09:19:47;;;;;;;3.58;2.55;;;17.00;48.70;;;;;;4845763;29;20049;-61
2021/12/06 09:22:13;;;;;;;4.32;2.80;;;17.20;49.30;;;;;;4844459;29;20034;-61
2021/12/06 09:24:39;;;;;;;4.88;2.60;;;17.30;47.90;;;;;;4846284;29;20026;-62
2021/12/06 09:27:06;;;;;;;4.25;2.47;;;17.50;47.90;;;;;;4843873;29;20471;-63
2021/12/06 09:29:36;;;;;;;3.53;2.38;;;17.70;47.70;;;;;;4845908;29;20087;-60
2021/12/06 09:32:07;;;;;;;5.00;2.83;;;18.00;47.60;;;;;;4844608;29;20034;-60
2021/12/06 09:34:34;;;;;;;5.05;3.17;;;18.10;47.20;;;;;;4844475;29;20041;-60
2021/12/06 09:37:00;;;;;;;4.30;2.92;;;18.30;46.30;;;;;;4844191;29;20048;-60
2021/12/06 09:39:26;;;;;;;3.75;2.60;;;18.40;46.90;;;;;;4844739;29;20033;-60
2021/12/06 09:41:53;;;;;;;4.90;3.08;;;18.60;48.50;;;;;;4844748;29;20034;-60
2021/12/06 09:44:19;;;;;;;7.30;3.50;;;18.70;49.10;;;;;;4844386;29;20081;-60
2021/12/06 09:46:45;;;;;;;7.07;3.83;;;18.80;50.60;;;;;;4844748;29;20022;-60
2021/12/06 09:49:16;;;;;;;8.00;4.63;;;18.90;49.90;;;;;;4845785;29;20037;-60
2021/12/06 09:51:50;;;;;;;6.15;4.10;;;19.00;49.80;;;;;;4846409;29;20370;-60
2021/12/06 09:54:18;;;;;;;6.85;4.28;;;19.00;49.50;;;;;;4831148;29;20395;-60
2021/12/06 09:56:44;;;;;;;6.88;4.35;;;19.00;49.20;;;;;;4848438;29;20044;-60
2021/12/06 09:59:14;;;;;;;5.53;4.10;;;19.10;48.90;;;;;;4846592;29;20055;-60
2021/12/06 10:01:52;;;;;;;8.52;4.53;;;19.20;48.70;;;;;;4847702;29;20021;-60
2021/12/06 10:04:24;;;;;;;6.78;4.25;;;19.20;48.70;;;;;;4846983;29;20037;-60
2021/12/06 10:06:52;;;;;;;6.55;4.28;;;19.20;48.50;;;;;;4859100;29;20026;-60
2021/12/06 10:09:20;;;;;;;8.20;4.55;;;19.40;48.30;;;;;;4847041;29;20045;-60
2021/12/06 10:11:46;;;;;;;7.80;4.70;;;19.50;48.10;;;;;;4846464;29;20026;-60
2021/12/06 10:14:12;;;;;;;7.63;4.72;;;19.60;47.90;;;;;;4849308;29;20489;-60
2021/12/06 10:16:39;;;;;;;7.32;4.78;;;19.60;47.70;;;;;;4847669;29;20078;-60
2021/12/06 10:19:05;;;;;;;9.90;5.10;;;19.70;47.10;;;;;;4850724;29;20144;-60
2021/12/06 10:21:32;;;;;;;7.82;5.00;;;19.80;46.90;;;;;;4846152;29;20173;-60
2021/12/06 10:23:59;;;;;;;9.25;5.32;;;19.80;46.50;;;;;;4845683;29;20018;-61
2021/12/06 10:26:28;;;;;;;7.57;5.30;;;19.90;46.50;;;;;;4856188;29;20037;-60
2021/12/06 10:28:59;;;;;;;10.32;5.20;;;20.00;46.40;;;;;;4851905;29;20022;-61
2021/12/06 10:31:26;;;;;;;9.88;5.47;;;20.10;46.30;;;;;;4846194;29;20044;-61
2021/12/06 10:33:55;;;;;;;8.93;5.22;;;20.10;46.00;;;;;;4846552;29;20437;-62
2021/12/06 10:36:22;;;;;;;8.35;5.15;;;20.20;46.00;;;;;;4845366;29;20058;-63
2021/12/06 10:38:53;;;;;;;8.18;5.47;;;20.30;45.80;;;;;;4847165;29;20037;-63
2021/12/06 10:41:22;;;;;;;8.63;4.95;;;20.30;45.50;;;;;;4850068;29;20026;-63
2021/12/06 10:43:57;;;;;;;9.98;5.68;;;20.40;45.50;;;;;;4846791;29;20037;-63
2021/12/06 10:46:25;;;;;;;8.82;5.78;;;20.50;45.30;;;;;;4853429;29;20025;-63
2021/12/06 10:48:58;;;;;;;9.30;5.85;;;20.50;44.80;;;;;;4849653;29;20479;-62
2021/12/06 10:51:24;;;;;;;9.15;5.80;;;20.60;44.70;;;;;;4854909;29;20057;-63
2021/12/06 10:54:04;;;;;;;8.43;5.45;;;20.60;44.50;;;;;;4858078;29;20041;-63
2021/12/06 10:56:43;;;;;;;15.35;5.70;;;20.70;44.40;;;;;;4853256;29;20040;-60
2021/12/06 10:59:22;;;;;;;9.55;5.47;;;20.70;44.40;;;;;;4845892;29;20037;-61
2021/12/06 11:01:52;;;;;;;8.63;5.35;;;20.70;44.30;;;;;;4846583;29;20118;-61
2021/12/06 11:04:22;;;;;;;8.00;5.50;;;20.80;44.40;;;;;;4845957;29;20440;-60
2021/12/06 11:06:51;;;;;;;8.98;5.88;;;20.80;44.40;;;;;;4860684;29;20036;-60
2021/12/06 11:09:23;;;;;;;9.35;5.57;;;20.80;44.40;;;;;;4856688;29;20049;-60
2021/12/06 11:11:50;;;;;;;;;;;20.70;44.40;;;;;;4850489;29;20485;-61
2021/12/06 11:14:22;;;;;;;11.73;7.25;;;20.80;44.30;;;;;;4848538;29;19912;-61
2021/12/06 11:17:13;;;;;;;11.75;7.60;;;20.80;44.90;;;;;;4848413;29;20106;-61
2021/12/06 11:19:39;;;;;;;13.27;7.25;;;20.80;44.80;;;;;;4859239;29;20509;-61
2021/12/06 11:22:11;;;;;;;10.88;6.85;;;20.80;44.80;;;;;;4849368;29;20082;-61
2021/12/06 11:24:40;;;;;;;13.57;7.50;;;20.90;44.80;;;;;;4857543;29;20049;-61
2021/12/06 11:27:09;;;;;;;10.25;6.88;;;20.80;44.90;;;;;;4863428;29;20100;-63
2021/12/06 11:29:37;;;;;;;10.32;6.88;;;20.90;44.90;;;;;;4846638;29;20030;-63
2021/12/06 11:32:23;;;;;;;11.20;7.43;;;20.90;45.00;;;;;;4845633;29;20033;-63
2021/12/06 11:35:18;;;;;;;12.10;7.95;;;21.00;44.90;;;;;;4854890;29;20025;-61
2021/12/06 11:37:55;;;;;;;11.05;6.88;;;21.00;44.80;;;;;;4845672;29;20022;-58
2021/12/06 11:40:21;;;;;;;11.32;7.25;;;20.90;45.20;;;;;;4846864;29;20489;-60
2021/12/06 11:42:56;;;;;;;12.63;6.95;;;20.90;45.60;;;;;;4846262;29;20030;-60
2021/12/06 11:45:33;;;;;;;11.52;7.53;;;20.90;45.80;;;;;;4847293;29;20045;-60
2021/12/06 11:48:11;;;;;;;9.52;6.65;;;21.00;45.80;;;;;;4828969;29;20038;-60
2021/12/06 11:50:55;;;;;;;9.80;6.57;;;21.00;45.80;;;;;;4844978;29;20033;-59
2021/12/06 11:53:28;;;;;;;10.40;6.90;;;21.00;45.90;;;;;;4844820;29;20038;-59
2021/12/06 11:56:05;;;;;;;9.43;6.55;;;21.00;45.90;;;;;;4844826;29;20037;-60
2021/12/06 11:58:48;;;;;;;11.52;6.88;;;21.00;45.40;;;;;;4846932;29;20025;-61
2021/12/06 12:01:22;;;;;;;9.82;6.50;;;21.00;45.30;;;;;;4844700;29;20030;-61
2021/12/06 12:03:52;;;;;;;9.82;7.07;;;21.00;45.10;;;;;;4849382;29;20053;-62
2021/12/06 12:06:20;;;;;;;9.15;6.28;;;21.00;45.10;;;;;;4861143;29;20135;-62
2021/12/06 12:08:46;;;;;;;10.15;6.65;;;21.00;45.20;;;;;;4843506;29;20038;-62
2021/12/06 12:11:12;;;;;;;10.52;7.03;;;21.00;46.20;;;;;;4848132;29;20045;-62
2021/12/06 12:13:38;;;;;;;9.77;6.47;;;21.00;45.10;;;;;;4848164;29;20355;-64
2021/12/06 12:16:12;;;;;;;10.38;6.68;;;21.00;45.00;;;;;;4850527;29;20033;-63
2021/12/06 12:18:40;;;;;;;10.05;6.35;;;21.00;44.90;;;;;;4843494;29;20064;-60
2021/12/06 12:21:08;;;;;;;9.77;6.18;;;21.00;44.70;;;;;;4852198;29;20042;-60
2021/12/06 12:23:34;;;;;;;9.85;6.15;;;21.00;44.90;;;;;;4848187;29;20030;-60
2021/12/06 12:26:07;;;;;;;11.73;6.53;;;21.00;44.80;;;;;;4842048;29;20036;-59
2021/12/06 12:28:40;;;;;;;;;;;21.00;44.90;;;;;;4847069;29;20026;-61
2021/12/06 12:31:09;;;;;;;7.60;5.50;;;21.00;45.00;;;;;;4847729;29;20409;-60
2021/12/06 12:33:36;;;;;;;7.78;5.45;;;20.90;45.00;;;;;;4849989;29;20467;-64
2021/12/06 12:36:13;;;;;;;9.23;5.50;;;20.90;44.90;;;;;;4854545;29;20116;-61
2021/12/06 12:38:42;;;;;;;8.85;5.72;;;20.90;44.70;;;;;;4843459;29;20474;-60
2021/12/06 12:41:12;;;;;;;9.27;6.15;;;20.90;44.80;;;;;;4851443;29;20034;-61
2021/12/06 12:43:47;;;;;;;8.63;5.75;;;20.90;44.60;;;;;;4851401;29;20108;-60
2021/12/06 12:46:17;;;;;;;9.73;6.00;;;20.90;44.70;;;;;;4847534;29;20033;-60
2021/12/06 12:48:51;;;;;;;8.75;5.65;;;20.90;44.50;;;;;;4844903;29;20104;-61
2021/12/06 12:51:40;;;;;;;9.10;5.32;;;20.90;44.20;;;;;;4842773;29;20113;-61
2021/12/06 12:54:08;;;;;;;8.80;5.90;;;20.80;44.30;;;;;;4846572;29;20108;-61
2021/12/06 12:57:05;;;;;;;8.98;5.45;;;20.80;44.40;;;;;;4845596;29;20032;-61
2021/12/06 12:59:35;;;;;;;8.43;5.93;;;20.90;44.30;;;;;;4825876;29;20049;-61
2021/12/06 13:02:16;;;;;;;9.00;5.65;;;20.80;44.60;;;;;;4846247;29;20106;-60
2021/12/06 13:04:57;;;;;;;10.55;6.07;;;20.80;44.60;;;;;;4856389;29;20034;-60
2021/12/06 13:07:24;;;;;;;8.95;5.70;;;20.80;44.30;;;;;;4852690;29;20495;-63
2021/12/06 13:09:50;;;;;;;8.63;5.75;;;20.70;44.20;;;;;;4845691;29;20032;-63
2021/12/06 13:12:17;;;;;;;8.57;6.10;;;20.70;44.30;;;;;;4845638;29;20513;-61